createdAt,value
2019-04-30T00:00:58.678Z,10.59
2019-04-30T00:03:35.293Z,10.61
2019-04-30T00:06:07.546Z,10.61
2019-04-30T00:08:39.078Z,10.65
2019-04-30T00:11:10.819Z,10.65
2019-04-30T00:13:42.506Z,10.64
2019-04-30T00:16:12.824Z,10.63
2019-04-30T00:18:54.829Z,10.62
2019-04-30T00:21:18.651Z,10.64
2019-04-30T00:23:47.658Z,10.64
2019-04-30T00:26:18.014Z,10.66
2019-04-30T00:28:48.635Z,10.66
2019-04-30T00:31:23.599Z,10.65
2019-04-30T00:33:56.832Z,10.67
2019-04-30T00:36:29.073Z,10.67
2019-04-30T00:38:56.903Z,10.67
2019-04-30T00:41:27.259Z,10.67
2019-04-30T00:43:57.641Z,10.67
2019-04-30T00:46:29.469Z,10.65
2019-04-30T00:49:09.033Z,10.65
2019-04-30T00:51:31.793Z,10.67
2019-04-30T00:54:02.169Z,10.68
2019-04-30T00:56:32.463Z,10.66
2019-04-30T00:59:07.052Z,10.66
2019-04-30T01:02:08.864Z,10.65
2019-04-30T01:04:44.991Z,10.66
2019-04-30T01:07:15.859Z,10.67
2019-04-30T01:09:49.529Z,10.68
2019-04-30T01:12:25.499Z,10.64
2019-04-30T01:14:50.640Z,10.62
2019-04-30T01:17:21.203Z,10.62
2019-04-30T01:19:54.683Z,10.60
2019-04-30T01:22:28.436Z,10.61
2019-04-30T01:24:56.116Z,10.56
2019-04-30T01:27:28.402Z,10.51
2019-04-30T01:29:59.124Z,10.48
2019-04-30T01:32:30.621Z,10.41
2019-04-30T01:35:00.963Z,10.41
2019-04-30T01:37:32.801Z,10.42
2019-04-30T01:40:10.526Z,10.39
2019-04-30T01:42:36.363Z,10.35
2019-04-30T01:45:08.652Z,10.30
2019-04-30T01:47:39.798Z,10.25
2019-04-30T01:50:10.344Z,10.20
2019-04-30T01:52:53.345Z,10.17
2019-04-30T01:55:50.047Z,10.11
2019-04-30T01:58:36.142Z,10.08
2019-04-30T02:01:11.597Z,10.06
2019-04-30T02:03:41.897Z,10.08
2019-04-30T02:06:12.356Z,10.10
2019-04-30T02:08:42.683Z,10.14
2019-04-30T02:11:13.548Z,10.16
2019-04-30T02:13:43.966Z,10.18
2019-04-30T02:16:14.453Z,10.20
2019-04-30T02:18:44.702Z,10.21
2019-04-30T02:21:15.277Z,10.24
2019-04-30T02:23:45.573Z,10.27
2019-04-30T02:26:16.133Z,10.28
2019-04-30T02:28:46.420Z,10.31
2019-04-30T02:31:19.474Z,10.32
2019-04-30T02:33:51.531Z,10.31
2019-04-30T02:36:40.485Z,10.30
2019-04-30T02:39:11.275Z,10.27
2019-04-30T02:41:42.357Z,10.24
2019-04-30T02:44:13.539Z,10.20
2019-04-30T02:46:46.087Z,10.16
2019-04-30T02:49:20.356Z,10.13
2019-04-30T02:51:51.348Z,10.10
2019-04-30T02:54:25.378Z,10.07
2019-04-30T02:57:01.536Z,10.07
2019-04-30T02:59:33.917Z,10.03
2019-04-30T03:02:04.175Z,10.03
2019-04-30T03:04:36.197Z,10.07
2019-04-30T03:07:06.520Z,10.08
2019-04-30T03:09:39.325Z,10.03
2019-04-30T03:12:09.181Z,10.00
2019-04-30T03:14:40.040Z,9.98
2019-04-30T03:17:20.902Z,9.96
2019-04-30T03:20:20.203Z,9.87
2019-04-30T03:22:43.156Z,9.87
2019-04-30T03:25:13.725Z,9.90
2019-04-30T03:27:43.988Z,9.90
2019-04-30T03:30:14.590Z,9.93
2019-04-30T03:32:50.761Z,9.91
2019-04-30T03:35:16.888Z,9.88
2019-04-30T03:37:49.620Z,9.83
2019-04-30T03:40:20.205Z,9.77
2019-04-30T03:42:50.751Z,9.66
2019-04-30T03:45:21.112Z,9.59
2019-04-30T03:47:51.436Z,9.59
2019-04-30T03:50:21.788Z,9.59
2019-04-30T03:52:52.142Z,9.56
2019-04-30T03:55:24.985Z,9.56
2019-04-30T03:57:54.831Z,9.52
2019-04-30T04:00:50.376Z,9.52
2019-04-30T04:03:21.907Z,9.45
2019-04-30T04:06:12.654Z,9.38
2019-04-30T04:08:50.343Z,9.26
2019-04-30T04:11:29.569Z,9.15
2019-04-30T04:13:59.701Z,9.08
2019-04-30T04:16:32.259Z,9.15
2019-04-30T04:19:02.714Z,9.19
2019-04-30T04:21:33.518Z,9.23
2019-04-30T04:24:04.081Z,9.21
2019-04-30T04:26:34.541Z,9.15
2019-04-30T04:29:05.236Z,9.11
2019-04-30T04:31:35.486Z,9.02
2019-04-30T04:34:09.280Z,8.99
2019-04-30T04:36:43.358Z,9.00
2019-04-30T04:39:13.392Z,9.00
2019-04-30T04:41:44.307Z,8.97
2019-04-30T04:44:15.182Z,8.98
2019-04-30T04:46:45.661Z,9.01
2019-04-30T04:49:19.977Z,9.07
2019-04-30T04:51:49.383Z,9.12
2019-04-30T04:54:20.420Z,9.14
2019-04-30T04:56:54.817Z,9.16
2019-04-30T04:59:23.085Z,9.24
2019-04-30T05:01:53.399Z,9.33
2019-04-30T05:04:23.914Z,9.37
2019-04-30T05:06:54.231Z,9.39
2019-04-30T05:09:24.526Z,9.38
2019-04-30T05:11:54.916Z,9.34
2019-04-30T05:14:25.258Z,9.32
2019-04-30T05:16:55.822Z,9.29
2019-04-30T05:19:26.136Z,9.26
2019-04-30T05:21:56.768Z,9.23
2019-04-30T05:24:28.653Z,9.24
2019-04-30T05:26:59.035Z,9.28
2019-04-30T05:29:29.587Z,9.41
2019-04-30T05:32:00.315Z,9.53
2019-04-30T05:34:30.888Z,9.65
2019-04-30T05:37:01.458Z,9.79
2019-04-30T05:39:31.907Z,9.87
2019-04-30T05:42:03.284Z,9.90
2019-04-30T05:44:33.889Z,9.98
2019-04-30T05:47:05.238Z,10.08
2019-04-30T05:49:35.536Z,10.26
2019-04-30T05:52:05.846Z,10.55
2019-04-30T05:54:36.410Z,10.78
2019-04-30T05:57:06.679Z,11.08
2019-04-30T05:59:38.804Z,11.39
2019-04-30T06:02:11.429Z,11.89
2019-04-30T06:04:41.482Z,12.32
2019-04-30T06:07:12.070Z,12.69
2019-04-30T06:09:51.246Z,12.77
2019-04-30T06:12:40.436Z,12.68
2019-04-30T06:15:19.431Z,12.56
2019-04-30T06:18:00.023Z,12.53
2019-04-30T06:20:23.599Z,12.53
2019-04-30T06:22:56.334Z,12.75
2019-04-30T06:25:33.724Z,12.76
2019-04-30T06:28:00.017Z,12.91
2019-04-30T06:30:32.527Z,13.07
2019-04-30T06:33:03.270Z,13.25
2019-04-30T06:35:33.814Z,13.20
2019-04-30T06:38:04.494Z,13.18
2019-04-30T06:40:35.048Z,13.02
2019-04-30T06:43:05.914Z,13.36
2019-04-30T06:45:38.655Z,13.68
2019-04-30T06:48:09.166Z,14.13
2019-04-30T06:50:39.681Z,14.13
2019-04-30T06:53:10.283Z,14.33
2019-04-30T06:55:40.849Z,14.04
2019-04-30T06:58:15.414Z,14.50
2019-04-30T07:00:45.076Z,15.15
2019-04-30T07:03:15.372Z,15.50
2019-04-30T07:05:46.028Z,15.31
2019-04-30T07:08:46.929Z,15.32
2019-04-30T07:11:25.924Z,15.21
2019-04-30T07:13:56.517Z,14.90
2019-04-30T07:16:29.833Z,15.00
2019-04-30T07:19:00.660Z,15.58
2019-04-30T07:21:36.588Z,15.68
2019-04-30T07:24:04.494Z,15.81
2019-04-30T07:26:35.080Z,15.83
2019-04-30T07:29:05.786Z,16.29
2019-04-30T07:31:39.136Z,16.58
2019-04-30T07:34:11.883Z,16.54
2019-04-30T07:36:48.560Z,16.45
2019-04-30T07:39:14.665Z,16.81
2019-04-30T07:41:45.144Z,17.28
2019-04-30T07:44:30.180Z,20.21
2019-04-30T07:46:49.319Z,21.78
2019-04-30T07:49:20.685Z,18.98
2019-04-30T07:51:52.714Z,18.84
2019-04-30T07:54:23.455Z,18.55
2019-04-30T07:56:55.735Z,20.64
2019-04-30T07:59:26.296Z,22.85
2019-04-30T08:02:07.460Z,24.23
2019-04-30T08:04:51.137Z,28.07
2019-04-30T08:07:21.776Z,29.99
2019-04-30T08:09:52.446Z,31.16
2019-04-30T08:12:30.184Z,32.82
2019-04-30T08:14:55.656Z,32.82
2019-04-30T08:17:26.228Z,31.80
2019-04-30T08:19:58.773Z,32.62
2019-04-30T08:22:29.836Z,33.27
2019-04-30T08:25:00.374Z,33.06
2019-04-30T08:27:31.449Z,31.57
2019-04-30T08:30:02.071Z,33.88
2019-04-30T08:32:35.225Z,33.51
2019-04-30T08:35:05.835Z,34.46
2019-04-30T08:37:38.575Z,34.84
2019-04-30T08:40:09.404Z,35.60
2019-04-30T08:42:40.513Z,36.00
2019-04-30T08:45:11.189Z,35.09
2019-04-30T08:47:42.707Z,35.22
2019-04-30T08:50:13.660Z,36.62
2019-04-30T08:52:44.550Z,38.04
2019-04-30T08:55:17.149Z,37.77
2019-04-30T08:57:50.233Z,38.57
2019-04-30T09:00:20.959Z,39.19
2019-04-30T09:02:51.535Z,38.80
2019-04-30T09:05:41.038Z,39.85
2019-04-30T09:08:12.675Z,38.53
2019-04-30T09:10:45.366Z,37.64
2019-04-30T09:13:15.814Z,38.92
2019-04-30T09:15:46.509Z,36.28
2019-04-30T09:18:19.096Z,36.01
2019-04-30T09:20:50.037Z,36.26
2019-04-30T09:23:21.041Z,36.43
2019-04-30T09:25:51.746Z,37.64
2019-04-30T09:28:22.074Z,36.28
2019-04-30T09:30:53.609Z,36.18
2019-04-30T09:33:26.244Z,35.90
2019-04-30T09:35:56.895Z,38.18
2019-04-30T09:38:29.008Z,37.67
2019-04-30T09:40:59.769Z,37.56
2019-04-30T09:43:35.287Z,37.64
2019-04-30T09:46:17.927Z,34.71
2019-04-30T09:48:38.667Z,36.58
2019-04-30T09:51:10.759Z,38.20
2019-04-30T09:53:55.832Z,35.19
2019-04-30T09:56:16.931Z,35.30
2019-04-30T09:58:49.304Z,37.07
2019-04-30T10:01:22.071Z,37.67
2019-04-30T10:03:54.429Z,38.22
2019-04-30T10:06:37.042Z,36.66
2019-04-30T10:08:59.679Z,38.22
2019-04-30T10:12:03.070Z,38.83
2019-04-30T10:14:33.339Z,37.95
2019-04-30T10:17:23.157Z,39.26
2019-04-30T10:19:53.729Z,39.34
2019-04-30T10:22:24.050Z,38.12
2019-04-30T10:24:54.671Z,36.93
2019-04-30T10:27:29.398Z,37.74
2019-04-30T10:30:00.670Z,37.18
2019-04-30T10:32:31.230Z,37.31
2019-04-30T10:35:01.849Z,34.05
2019-04-30T10:37:32.143Z,32.46
2019-04-30T10:40:02.496Z,35.20
2019-04-30T10:42:34.859Z,35.38
2019-04-30T10:45:09.726Z,36.46
2019-04-30T10:47:40.443Z,37.87
2019-04-30T10:50:11.314Z,35.74
2019-04-30T10:52:41.728Z,35.74
2019-04-30T10:55:12.530Z,37.21
2019-04-30T10:57:45.052Z,37.21
2019-04-30T11:00:16.031Z,36.95
2019-04-30T11:02:46.749Z,36.28
2019-04-30T11:05:18.803Z,33.73
2019-04-30T11:07:51.987Z,33.13
2019-04-30T11:10:25.178Z,34.76
2019-04-30T11:12:56.293Z,35.75
2019-04-30T11:15:28.825Z,36.16
2019-04-30T11:17:59.801Z,35.65
2019-04-30T11:20:31.966Z,28.23
2019-04-30T11:23:13.857Z,30.98
2019-04-30T11:25:35.511Z,32.73
2019-04-30T11:28:08.163Z,33.15
2019-04-30T11:30:39.931Z,32.33
2019-04-30T11:33:11.862Z,32.33
2019-04-30T11:35:42.660Z,32.51
2019-04-30T11:38:12.947Z,30.87
2019-04-30T11:40:43.632Z,30.90
2019-04-30T11:43:14.220Z,32.04
2019-04-30T11:46:22.279Z,32.82
2019-04-30T11:48:52.860Z,32.95
2019-04-30T11:51:26.993Z,32.30
2019-04-30T11:53:59.228Z,32.30
2019-04-30T11:56:30.286Z,29.11
2019-04-30T11:59:00.972Z,28.19
2019-04-30T12:01:32.346Z,25.10
2019-04-30T12:04:02.907Z,23.93
2019-04-30T12:06:33.475Z,23.30
2019-04-30T12:09:18.488Z,21.99
2019-04-30T12:11:50.719Z,21.99
2019-04-30T12:14:21.257Z,21.02
2019-04-30T12:16:52.549Z,20.75
2019-04-30T12:19:24.051Z,20.61
2019-04-30T12:21:54.795Z,20.46
2019-04-30T12:24:25.685Z,20.57
2019-04-30T12:26:57.242Z,20.78
2019-04-30T12:29:29.180Z,21.10
2019-04-30T12:31:59.548Z,21.20
2019-04-30T12:34:30.157Z,21.00
2019-04-30T12:37:00.936Z,20.86
2019-04-30T12:39:33.193Z,20.64
2019-04-30T12:42:03.806Z,20.62
2019-04-30T12:44:34.174Z,19.92
2019-04-30T12:47:04.770Z,19.56
2019-04-30T12:49:51.742Z,19.84
2019-04-30T12:52:29.583Z,20.08
2019-04-30T12:55:15.446Z,20.05
2019-04-30T12:57:56.164Z,20.21
2019-04-30T13:00:19.481Z,20.45
2019-04-30T13:02:50.230Z,19.68
2019-04-30T13:05:21.784Z,19.63
2019-04-30T13:07:52.788Z,19.69
2019-04-30T13:10:24.277Z,20.02
2019-04-30T13:12:55.615Z,20.03
2019-04-30T13:15:26.504Z,19.96
2019-04-30T13:17:58.557Z,20.03
2019-04-30T13:20:29.541Z,20.13
2019-04-30T13:23:00.130Z,20.30
2019-04-30T13:25:48.937Z,20.18
2019-04-30T13:28:14.059Z,20.07
2019-04-30T13:30:44.754Z,20.12
2019-04-30T13:33:33.700Z,19.64
2019-04-30T13:36:04.272Z,19.26
2019-04-30T13:38:55.158Z,19.45
2019-04-30T13:41:46.092Z,19.57
2019-04-30T13:44:19.584Z,19.79
2019-04-30T13:46:50.095Z,20.05
2019-04-30T13:49:20.590Z,19.75
2019-04-30T13:51:51.152Z,19.63
2019-04-30T13:54:21.776Z,19.55
2019-04-30T13:56:52.106Z,19.36
2019-04-30T13:59:23.865Z,19.42
2019-04-30T14:01:54.505Z,19.68
2019-04-30T14:04:34.374Z,19.38
2019-04-30T14:07:22.457Z,19.38
2019-04-30T14:09:53.047Z,19.27
2019-04-30T14:12:23.666Z,19.14
2019-04-30T14:14:53.934Z,19.32
2019-04-30T14:17:24.555Z,18.84
2019-04-30T14:19:54.884Z,18.84
2019-04-30T14:22:25.509Z,18.83
2019-04-30T14:24:56.827Z,18.83
2019-04-30T14:27:27.426Z,18.84
2019-04-30T14:29:59.347Z,18.65
2019-04-30T14:32:30.038Z,18.77
2019-04-30T14:35:00.714Z,18.70
2019-04-30T14:37:31.897Z,18.55
2019-04-30T14:40:02.887Z,18.55
2019-04-30T14:42:36.272Z,18.34
2019-04-30T14:45:22.056Z,18.34
2019-04-30T14:48:02.485Z,18.20
2019-04-30T14:50:33.578Z,18.10
2019-04-30T14:53:30.564Z,17.87
2019-04-30T14:56:25.002Z,18.16
2019-04-30T14:59:32.802Z,18.24
2019-04-30T15:02:14.937Z,17.92
2019-04-30T15:04:45.241Z,17.77
2019-04-30T15:07:15.599Z,17.76
2019-04-30T15:09:45.917Z,17.83
2019-04-30T15:12:16.229Z,17.73
2019-04-30T15:14:46.567Z,17.50
2019-04-30T15:17:17.198Z,17.40
2019-04-30T15:19:54.250Z,17.51
2019-04-30T15:22:22.103Z,17.44
2019-04-30T15:24:52.770Z,17.36
2019-04-30T15:27:23.148Z,17.51
2019-04-30T15:29:57.133Z,17.56
2019-04-30T15:32:26.046Z,17.61
2019-04-30T15:34:56.642Z,17.46
2019-04-30T15:37:28.662Z,17.25
2019-04-30T15:40:00.263Z,17.35
2019-04-30T15:42:31.042Z,17.35
2019-04-30T15:45:01.629Z,17.18
2019-04-30T15:47:32.014Z,17.15
2019-04-30T15:50:02.614Z,17.11
2019-04-30T15:52:33.611Z,17.14
2019-04-30T15:55:05.474Z,17.07
2019-04-30T15:57:52.818Z,16.95
2019-04-30T16:00:33.024Z,17.00
2019-04-30T16:03:09.507Z,16.88
2019-04-30T16:05:42.639Z,16.87
2019-04-30T16:08:32.624Z,16.80
2019-04-30T16:11:25.566Z,16.64
2019-04-30T16:14:20.773Z,16.68
2019-04-30T16:17:00.257Z,16.72
2019-04-30T16:19:31.024Z,16.77
2019-04-30T16:22:01.470Z,16.47
2019-04-30T16:24:33.253Z,16.44
2019-04-30T16:27:04.061Z,16.59
2019-04-30T16:29:36.189Z,16.62
2019-04-30T16:32:09.128Z,16.51
2019-04-30T16:34:44.259Z,16.60
2019-04-30T16:37:14.554Z,16.57
2019-04-30T16:39:46.383Z,16.53
2019-04-30T16:42:18.872Z,16.46
2019-04-30T16:44:49.513Z,16.36
2019-04-30T16:47:20.093Z,16.28
2019-04-30T16:49:50.790Z,16.30
2019-04-30T16:52:21.077Z,16.29
2019-04-30T16:54:51.407Z,16.15
2019-04-30T16:57:21.731Z,16.14
2019-04-30T16:59:53.501Z,16.12
2019-04-30T17:02:25.512Z,16.11
2019-04-30T17:05:03.768Z,16.06
2019-04-30T17:07:56.138Z,16.03
2019-04-30T17:10:41.675Z,15.98
2019-04-30T17:13:28.953Z,15.88
2019-04-30T17:16:06.320Z,15.77
2019-04-30T17:18:38.769Z,15.71
2019-04-30T17:21:09.874Z,15.64
2019-04-30T17:23:40.488Z,15.51
2019-04-30T17:26:11.372Z,15.44
2019-04-30T17:28:41.972Z,15.38
2019-04-30T17:31:13.579Z,15.31
2019-04-30T17:33:45.161Z,15.21
2019-04-30T17:36:15.999Z,15.23
2019-04-30T17:38:46.720Z,15.17
2019-04-30T17:41:17.450Z,15.14
2019-04-30T17:43:49.638Z,15.02
2019-04-30T17:46:21.200Z,15.02
2019-04-30T17:48:51.685Z,15.00
2019-04-30T17:51:22.882Z,14.92
2019-04-30T17:54:15.973Z,14.84
2019-04-30T17:56:47.151Z,14.79
2019-04-30T17:59:17.920Z,14.69
2019-04-30T18:02:01.462Z,14.62
2019-04-30T18:04:32.405Z,14.56
2019-04-30T18:07:03.147Z,14.50
2019-04-30T18:09:33.809Z,14.46
2019-04-30T18:12:04.339Z,14.34
2019-04-30T18:14:34.903Z,14.24
2019-04-30T18:17:05.220Z,14.17
2019-04-30T18:22:50.643Z,13.94
2019-04-30T18:25:52.183Z,13.86
2019-04-30T18:28:22.928Z,13.77
2019-04-30T18:30:53.334Z,13.68
2019-04-30T18:33:24.198Z,13.54
2019-04-30T18:35:54.600Z,13.48
2019-04-30T18:38:24.902Z,13.41
2019-04-30T18:40:55.626Z,13.36
2019-04-30T18:43:28.625Z,13.22
2019-04-30T18:46:00.671Z,13.27
2019-04-30T18:48:31.437Z,13.21
2019-04-30T18:51:14.603Z,13.10
2019-04-30T18:53:36.401Z,13.00
2019-04-30T18:56:12.214Z,12.97
2019-04-30T18:58:42.788Z,12.85
2019-04-30T19:01:11.730Z,12.81
2019-04-30T19:03:42.125Z,12.68
2019-04-30T19:06:23.743Z,12.52
2019-04-30T19:09:21.129Z,12.52
2019-04-30T19:12:05.186Z,12.59
2019-04-30T19:14:53.315Z,12.56
2019-04-30T19:17:39.423Z,12.47
2019-04-30T19:20:21.013Z,12.34
2019-04-30T19:22:51.423Z,12.32
2019-04-30T19:25:22.325Z,12.29
2019-04-30T19:27:52.926Z,12.26
2019-04-30T19:30:23.576Z,12.14
2019-04-30T19:32:53.931Z,12.13
2019-04-30T19:35:25.734Z,12.13
2019-04-30T19:37:56.052Z,12.09
2019-04-30T19:40:28.551Z,11.99
2019-04-30T19:42:59.073Z,11.97
2019-04-30T19:45:30.199Z,11.95
2019-04-30T19:48:00.941Z,12.00
2019-04-30T19:50:31.887Z,11.99
2019-04-30T19:53:02.724Z,11.86
2019-04-30T19:55:33.521Z,11.76
2019-04-30T19:58:04.301Z,11.73
2019-04-30T20:00:35.890Z,11.74
2019-04-30T20:03:09.408Z,11.67
2019-04-30T20:05:39.709Z,11.63
2019-04-30T20:08:11.128Z,11.59
2019-04-30T20:10:42.805Z,11.58
2019-04-30T20:13:13.149Z,11.49
2019-04-30T20:15:43.886Z,11.51
2019-04-30T20:18:14.185Z,11.44
2019-04-30T20:20:46.701Z,11.34
2019-04-30T20:23:17.024Z,11.26
2019-04-30T20:25:48.136Z,11.21
2019-04-30T20:28:18.541Z,11.10
2019-04-30T20:30:51.173Z,10.98
2019-04-30T20:33:21.536Z,10.87
2019-04-30T20:35:52.548Z,10.78
2019-04-30T20:38:51.004Z,10.70
2019-04-30T20:41:21.772Z,10.59
2019-04-30T20:43:52.311Z,10.66
2019-04-30T20:46:32.077Z,10.71
2019-04-30T20:48:55.053Z,10.66
2019-04-30T20:51:26.620Z,10.57
2019-04-30T20:53:59.094Z,10.64
2019-04-30T20:56:30.260Z,10.68
2019-04-30T20:59:05.254Z,10.68
2019-04-30T21:01:32.960Z,10.67
2019-04-30T21:04:03.245Z,10.60
2019-04-30T21:06:39.554Z,10.64
2019-04-30T21:09:09.983Z,10.62
2019-04-30T21:11:40.573Z,10.53
2019-04-30T21:14:10.948Z,10.43
2019-04-30T21:16:41.585Z,10.39
2019-04-30T21:19:11.942Z,10.36
2019-04-30T21:21:42.570Z,10.29
2019-04-30T21:24:12.914Z,10.15
2019-04-30T21:26:45.145Z,10.10
2019-04-30T21:29:16.376Z,10.04
2019-04-30T21:32:11.694Z,10.04
2019-04-30T21:34:52.509Z,10.01
2019-04-30T21:37:22.860Z,9.90
2019-04-30T21:39:54.600Z,9.86
2019-04-30T21:42:25.223Z,9.81
2019-04-30T21:44:56.456Z,9.77
2019-04-30T21:47:26.798Z,9.79
2019-04-30T21:49:57.140Z,9.70
2019-04-30T21:52:27.774Z,9.70
2019-04-30T21:54:59.599Z,9.66
2019-04-30T21:57:30.101Z,9.56
2019-04-30T22:00:00.450Z,9.47
2019-04-30T22:02:32.626Z,9.39
2019-04-30T22:05:02.999Z,9.39
2019-04-30T22:07:33.708Z,9.27
2019-04-30T22:10:04.463Z,9.19
2019-04-30T22:12:35.332Z,9.11
2019-04-30T22:15:05.660Z,9.14
2019-04-30T22:17:39.103Z,9.18
2019-04-30T22:20:09.842Z,9.19
2019-04-30T22:22:41.660Z,9.22
2019-04-30T22:25:13.626Z,9.15
2019-04-30T22:27:46.458Z,9.12
2019-04-30T22:30:16.853Z,9.02
2019-04-30T22:32:47.715Z,8.93
2019-04-30T22:35:35.762Z,8.87
2019-04-30T22:38:09.248Z,8.89
2019-04-30T22:40:40.656Z,8.84
2019-04-30T22:43:13.728Z,8.73
2019-04-30T22:45:49.951Z,8.66
2019-04-30T22:48:20.810Z,8.59
2019-04-30T22:50:51.137Z,8.63
2019-04-30T22:53:21.416Z,8.58
2019-04-30T22:55:51.825Z,8.53
2019-04-30T22:58:22.400Z,8.50
2019-04-30T23:00:54.800Z,8.47
2019-04-30T23:03:30.035Z,8.47
2019-04-30T23:06:03.190Z,8.44
2019-04-30T23:08:34.002Z,8.37
2019-04-30T23:11:04.504Z,8.38
2019-04-30T23:13:35.292Z,8.37
2019-04-30T23:16:06.054Z,8.33
2019-04-30T23:18:36.632Z,8.27
2019-04-30T23:21:06.977Z,8.19
2019-04-30T23:23:37.310Z,8.20
2019-04-30T23:26:07.684Z,8.20
2019-04-30T23:28:41.012Z,8.19
2019-04-30T23:31:11.301Z,8.12
2019-04-30T23:33:44.352Z,8.06
2019-04-30T23:36:14.732Z,8.13
2019-04-30T23:38:46.464Z,8.11
2019-04-30T23:41:16.758Z,8.03
2019-04-30T23:43:48.401Z,7.97
2019-04-30T23:46:18.957Z,7.88
2019-04-30T23:48:49.283Z,7.87
2019-04-30T23:51:19.801Z,7.89
2019-04-30T23:53:50.129Z,7.84
2019-04-30T23:56:20.415Z,7.76
2019-04-30T23:58:50.740Z,7.76
